TEJ585 YSSY-SCEL
Flight info
| Callsign | TEJ585 |
|---|---|
| Flight time | N/A |
| Altitude | 37000 |
| Route | SY3/25 OPTIC Y84 TONIM DCT 40S158E 44S162E/N0484F390 47S166E 49S169E 52S174E 54S178E 56S177W 57S174W 59S166W 61S155W 62S142W/N0485F410 62S138W 61S123W 59S112W 57S105W 54S097W/N0471F400 50S089W/N0472F430 46S083W 41S077W DCT CAR/N0469F410 DCT LODOS/N0479F430 UQ808 EROLO EROLO8A |
| Aircraft | A359/H-SDE2E3GHIJ3J4J5LM1ORWXY/LB1D1 |
Departure
| Time | 2026-05-08 03:51 |
|---|---|
| Airport | Sydney Kingsford Smith International Airport (YSSY) |
Arrival
| Time | N/A |
|---|---|
| Airport | Comodoro Arturo Merino Benítez International Airport (SCEL) |
| Time | Latitude | Longitude | Altitude | Speed | Heading |
|---|---|---|---|---|---|
| 2026-05-08 03:30 | -33.93617 | 151.17013 | 36 ft | 0 kts | 168° |
| 2026-05-08 03:37 | -33.93594 | 151.17006 | 35 ft | 4 kts | 163° |
| 2026-05-08 03:37 | -33.93568 | 151.16996 | 34 ft | 4 kts | 156° |
| 2026-05-08 03:37 | -33.93544 | 151.16982 | 34 ft | 4 kts | 147° |
| 2026-05-08 03:37 | -33.93523 | 151.16963 | 34 ft | 4 kts | 136° |
| 2026-05-08 03:38 | -33.93506 | 151.16942 | 35 ft | 2 kts | 126° |
| 2026-05-08 03:38 | -33.93501 | 151.16932 | 35 ft | 1 kts | 132° |
| 2026-05-08 03:42 | -33.93508 | 151.16957 | 45 ft | 4 kts | 100° |
| 2026-05-08 03:42 | -33.93507 | 151.16998 | 32 ft | 6 kts | 88° |
| 2026-05-08 03:42 | -33.93505 | 151.17054 | 36 ft | 8 kts | 88° |
| 2026-05-08 03:43 | -33.93531 | 151.17106 | 35 ft | 8 kts | 150° |
| 2026-05-08 03:43 | -33.93589 | 151.17126 | 35 ft | 10 kts | 167° |
| 2026-05-08 03:43 | -33.93658 | 151.17143 | 35 ft | 11 kts | 168° |
| 2026-05-08 03:43 | -33.93739 | 151.17163 | 35 ft | 13 kts | 167° |
| 2026-05-08 03:44 | -33.93829 | 151.17187 | 35 ft | 14 kts | 168° |
| 2026-05-08 03:44 | -33.93921 | 151.17211 | 35 ft | 12 kts | 168° |
| 2026-05-08 03:44 | -33.93955 | 151.17239 | 34 ft | 3 kts | 118° |
| 2026-05-08 03:44 | -33.93956 | 151.17268 | 35 ft | 4 kts | 83° |
| 2026-05-08 03:45 | -33.93946 | 151.17324 | 34 ft | 11 kts | 76° |
| 2026-05-08 03:45 | -33.93921 | 151.17445 | 33 ft | 16 kts | 73° |
| 2026-05-08 03:45 | -33.93887 | 151.17578 | 35 ft | 17 kts | 74° |
| 2026-05-08 03:45 | -33.93854 | 151.17716 | 36 ft | 18 kts | 74° |
| 2026-05-08 03:46 | -33.93820 | 151.17860 | 36 ft | 17 kts | 75° |
| 2026-05-08 03:46 | -33.93787 | 151.18001 | 36 ft | 18 kts | 74° |
| 2026-05-08 03:46 | -33.93752 | 151.18148 | 36 ft | 18 kts | 74° |
| 2026-05-08 03:46 | -33.93722 | 151.18276 | 36 ft | 16 kts | 74° |
| 2026-05-08 03:47 | -33.93690 | 151.18411 | 36 ft | 18 kts | 74° |
| 2026-05-08 03:47 | -33.93666 | 151.18512 | 35 ft | 12 kts | 74° |
| 2026-05-08 03:47 | -33.93642 | 151.18611 | 36 ft | 13 kts | 74° |
| 2026-05-08 03:47 | -33.93616 | 151.18723 | 36 ft | 15 kts | 74° |
| 2026-05-08 03:48 | -33.93594 | 151.18834 | 36 ft | 12 kts | 85° |
| 2026-05-08 03:48 | -33.93619 | 151.18922 | 35 ft | 11 kts | 135° |
| 2026-05-08 03:48 | -33.93646 | 151.18938 | 34 ft | 0 kts | 160° |
| 2026-05-08 03:49 | -33.93645 | 151.18938 | 34 ft | 0 kts | 160° |
| 2026-05-08 03:49 | -33.93646 | 151.18938 | 34 ft | 0 kts | 160° |
| 2026-05-08 03:50 | -33.93702 | 151.18958 | 32 ft | 15 kts | 165° |
| 2026-05-08 03:50 | -33.93768 | 151.18920 | 31 ft | 10 kts | 248° |
| 2026-05-08 03:50 | -33.93800 | 151.18787 | 32 ft | 40 kts | 254° |
| 2026-05-08 03:50 | -33.93948 | 151.18162 | 36 ft | 114 kts | 254° |
| 2026-05-08 03:51 | -33.94228 | 151.17029 | 305 ft | 154 kts | 254° |
| 2026-05-08 03:51 | -33.94549 | 151.15762 | 1113 ft | 163 kts | 252° |
| 2026-05-08 03:51 | -33.94856 | 151.14445 | 1920 ft | 163 kts | 253° |
| 2026-05-08 03:51 | -33.95151 | 151.13146 | 2578 ft | 164 kts | 253° |
| 2026-05-08 03:52 | -33.95467 | 151.11743 | 2875 ft | 183 kts | 252° |
| 2026-05-08 03:52 | -33.95826 | 151.10224 | 3296 ft | 193 kts | 246° |
| 2026-05-08 03:52 | -33.96537 | 151.08810 | 3687 ft | 207 kts | 226° |
| 2026-05-08 03:52 | -33.97813 | 151.07885 | 3969 ft | 228 kts | 194° |
| 2026-05-08 03:53 | -33.99405 | 151.08124 | 4601 ft | 244 kts | 158° |
| 2026-05-08 03:53 | -34.00757 | 151.09426 | 5319 ft | 255 kts | 137° |
| 2026-05-08 03:53 | -34.01815 | 151.11186 | 6043 ft | 264 kts | 127° |
| 2026-05-08 03:53 | -34.02701 | 151.13117 | 6752 ft | 270 kts | 123° |
| 2026-05-08 03:54 | -34.03555 | 151.15152 | 7431 ft | 275 kts | 122° |
| 2026-05-08 03:54 | -34.04441 | 151.17226 | 8129 ft | 281 kts | 123° |
| 2026-05-08 03:54 | -34.05383 | 151.19310 | 8838 ft | 285 kts | 125° |
| 2026-05-08 03:54 | -34.06379 | 151.21400 | 9532 ft | 290 kts | 126° |
| 2026-05-08 03:55 | -34.07421 | 151.23510 | 10204 ft | 296 kts | 127° |
| 2026-05-08 03:55 | -34.08524 | 151.25693 | 10559 ft | 314 kts | 127° |
| 2026-05-08 03:55 | -34.09708 | 151.28005 | 10877 ft | 333 kts | 127° |
| 2026-05-08 03:55 | -34.10956 | 151.30446 | 11200 ft | 350 kts | 127° |
| 2026-05-08 03:56 | -34.12231 | 151.32956 | 11662 ft | 360 kts | 127° |
| 2026-05-08 03:56 | -34.13541 | 151.35561 | 12297 ft | 365 kts | 127° |
| 2026-05-08 03:56 | -34.14860 | 151.38199 | 12948 ft | 370 kts | 127° |
| 2026-05-08 03:56 | -34.16200 | 151.40879 | 13611 ft | 374 kts | 128° |
| 2026-05-08 03:57 | -34.17553 | 151.43585 | 14233 ft | 378 kts | 128° |
| 2026-05-08 03:57 | -34.18919 | 151.46316 | 14833 ft | 382 kts | 128° |
| 2026-05-08 03:57 | -34.20298 | 151.49071 | 15435 ft | 385 kts | 128° |
| 2026-05-08 03:57 | -34.21688 | 151.51847 | 16042 ft | 388 kts | 129° |
| 2026-05-08 03:58 | -34.23074 | 151.54617 | 16627 ft | 392 kts | 129° |
| 2026-05-08 03:58 | -34.24492 | 151.57451 | 17227 ft | 396 kts | 129° |
| 2026-05-08 03:58 | -34.25916 | 151.60301 | 17807 ft | 399 kts | 129° |
| 2026-05-08 03:58 | -34.27363 | 151.63198 | 18399 ft | 403 kts | 129° |
| 2026-05-08 03:59 | -34.28815 | 151.66108 | 18939 ft | 406 kts | 129° |
| 2026-05-08 03:59 | -34.30279 | 151.69046 | 19462 ft | 410 kts | 130° |
| 2026-05-08 03:59 | -34.31757 | 151.72013 | 20027 ft | 413 kts | 130° |
| 2026-05-08 03:59 | -34.33241 | 151.74996 | 20588 ft | 416 kts | 130° |
| 2026-05-08 04:00 | -34.34743 | 151.78018 | 21154 ft | 420 kts | 130° |
| 2026-05-08 04:00 | -34.36232 | 151.81016 | 21712 ft | 423 kts | 130° |
| 2026-05-08 04:00 | -34.37754 | 151.84083 | 22251 ft | 427 kts | 130° |
| 2026-05-08 04:00 | -34.39296 | 151.87159 | 22780 ft | 428 kts | 132° |
| 2026-05-08 04:01 | -34.41028 | 151.90065 | 23331 ft | 425 kts | 137° |
| 2026-05-08 04:01 | -34.42858 | 151.92876 | 23823 ft | 427 kts | 139° |
| 2026-05-08 04:01 | -34.44743 | 151.95674 | 24273 ft | 429 kts | 139° |
| 2026-05-08 04:01 | -34.46652 | 151.98459 | 24762 ft | 430 kts | 140° |
| 2026-05-08 04:02 | -34.48579 | 152.01252 | 25230 ft | 433 kts | 140° |
| 2026-05-08 04:02 | -34.50516 | 152.04057 | 25680 ft | 436 kts | 140° |
| 2026-05-08 04:02 | -34.52445 | 152.06857 | 26087 ft | 440 kts | 140° |
| 2026-05-08 04:02 | -34.54406 | 152.09712 | 26511 ft | 443 kts | 140° |
| 2026-05-08 04:03 | -34.56388 | 152.12610 | 26950 ft | 446 kts | 140° |
| 2026-05-08 04:03 | -34.60376 | 152.18455 | 27766 ft | 454 kts | 140° |
| 2026-05-08 04:03 | -34.62395 | 152.21419 | 28166 ft | 458 kts | 140° |
| 2026-05-08 04:04 | -34.64432 | 152.24414 | 28564 ft | 461 kts | 140° |
| 2026-05-08 04:04 | -34.66478 | 152.27424 | 28956 ft | 464 kts | 140° |
| 2026-05-08 04:04 | -34.68544 | 152.30464 | 29295 ft | 468 kts | 140° |
| 2026-05-08 04:04 | -34.70597 | 152.33487 | 29638 ft | 472 kts | 140° |
| 2026-05-08 04:05 | -34.72692 | 152.36576 | 29981 ft | 475 kts | 140° |
| 2026-05-08 04:05 | -34.74803 | 152.39692 | 30294 ft | 479 kts | 139° |
| 2026-05-08 04:05 | -34.76928 | 152.42831 | 30546 ft | 483 kts | 139° |
| 2026-05-08 04:05 | -34.79071 | 152.45999 | 30819 ft | 487 kts | 139° |
| 2026-05-08 04:06 | -34.81228 | 152.49193 | 31109 ft | 489 kts | 139° |
| 2026-05-08 04:06 | -34.83394 | 152.52404 | 31396 ft | 492 kts | 138° |
| 2026-05-08 04:06 | -34.85570 | 152.55631 | 31645 ft | 495 kts | 138° |
| 2026-05-08 04:06 | -34.87761 | 152.58883 | 31901 ft | 498 kts | 138° |
| 2026-05-08 04:07 | -34.89961 | 152.62153 | 32182 ft | 500 kts | 137° |
| 2026-05-08 04:07 | -34.92172 | 152.65442 | 32440 ft | 502 kts | 137° |
| 2026-05-08 04:07 | -34.94358 | 152.68695 | 32639 ft | 506 kts | 137° |
| 2026-05-08 04:07 | -34.96594 | 152.72024 | 32846 ft | 509 kts | 137° |
| 2026-05-08 04:08 | -34.98839 | 152.75371 | 33079 ft | 511 kts | 137° |
| 2026-05-08 04:08 | -35.01091 | 152.78734 | 33387 ft | 512 kts | 137° |
| 2026-05-08 04:08 | -35.03342 | 152.82099 | 33661 ft | 513 kts | 136° |
| 2026-05-08 04:08 | -35.05599 | 152.85477 | 33922 ft | 514 kts | 136° |
| 2026-05-08 04:09 | -35.07862 | 152.88865 | 34162 ft | 515 kts | 136° |
| 2026-05-08 04:09 | -35.10124 | 152.92256 | 34399 ft | 516 kts | 136° |
| 2026-05-08 04:09 | -35.12392 | 152.95656 | 34581 ft | 517 kts | 136° |
| 2026-05-08 04:09 | -35.14635 | 152.99023 | 34815 ft | 518 kts | 136° |
| 2026-05-08 04:10 | -35.16905 | 153.02436 | 35076 ft | 517 kts | 136° |
| 2026-05-08 04:10 | -35.19172 | 153.05847 | 35331 ft | 517 kts | 136° |
| 2026-05-08 04:10 | -35.21440 | 153.09262 | 35546 ft | 518 kts | 135° |
| 2026-05-08 04:10 | -35.23710 | 153.12682 | 35776 ft | 518 kts | 135° |
| 2026-05-08 04:11 | -35.25977 | 153.16102 | 36022 ft | 517 kts | 135° |
| 2026-05-08 04:11 | -35.28241 | 153.19523 | 36267 ft | 517 kts | 135° |
| 2026-05-08 04:11 | -35.30502 | 153.22940 | 36477 ft | 517 kts | 135° |
| 2026-05-08 04:11 | -35.32764 | 153.26362 | 36684 ft | 517 kts | 135° |
| 2026-05-08 04:12 | -35.34996 | 153.29741 | 36886 ft | 517 kts | 135° |
| 2026-05-08 04:12 | -35.37261 | 153.33172 | 36938 ft | 520 kts | 135° |
| 2026-05-08 04:12 | -35.41810 | 153.40076 | 36932 ft | 521 kts | 135° |
| 2026-05-08 04:13 | -35.46360 | 153.47001 | 36923 ft | 521 kts | 135° |
| 2026-05-08 04:13 | -35.50907 | 153.53931 | 36921 ft | 522 kts | 135° |
| 2026-05-08 04:14 | -35.55426 | 153.60832 | 36917 ft | 523 kts | 135° |
| 2026-05-08 04:14 | -35.59987 | 153.67810 | 36914 ft | 524 kts | 134° |
| 2026-05-08 04:15 | -35.64548 | 153.74804 | 36908 ft | 524 kts | 134° |
| 2026-05-08 04:15 | -35.69109 | 153.81811 | 36899 ft | 526 kts | 134° |
| 2026-05-08 04:16 | -35.73642 | 153.88792 | 36897 ft | 526 kts | 134° |
| 2026-05-08 04:16 | -35.78208 | 153.95835 | 36897 ft | 527 kts | 134° |
| 2026-05-08 04:17 | -35.82778 | 154.02901 | 36882 ft | 527 kts | 134° |
| 2026-05-08 04:17 | -35.87340 | 154.09968 | 36885 ft | 527 kts | 133° |
| 2026-05-08 04:18 | -35.91905 | 154.17055 | 36866 ft | 528 kts | 133° |
| 2026-05-08 04:18 | -35.96439 | 154.24107 | 36876 ft | 528 kts | 133° |
| 2026-05-08 04:19 | -36.01006 | 154.31209 | 36854 ft | 527 kts | 134° |
| 2026-05-08 04:19 | -36.06313 | 154.37270 | 36856 ft | 516 kts | 149° |
| 2026-05-08 04:20 | -36.12136 | 154.42440 | 36851 ft | 515 kts | 151° |
| 2026-05-08 04:20 | -36.18025 | 154.47477 | 36846 ft | 516 kts | 151° |
| 2026-05-08 04:21 | -36.23891 | 154.52511 | 36842 ft | 516 kts | 150° |
| 2026-05-08 04:21 | -36.29785 | 154.57609 | 36835 ft | 517 kts | 150° |
| 2026-05-08 04:22 | -36.35683 | 154.62735 | 36830 ft | 518 kts | 150° |
| 2026-05-08 04:22 | -36.41577 | 154.67868 | 36826 ft | 519 kts | 150° |
| 2026-05-08 04:23 | -36.47463 | 154.73003 | 36818 ft | 519 kts | 150° |
| 2026-05-08 04:23 | -36.53370 | 154.78166 | 36817 ft | 521 kts | 150° |
| 2026-05-08 04:24 | -36.59303 | 154.83361 | 36811 ft | 521 kts | 149° |
| 2026-05-08 04:24 | -36.65239 | 154.88569 | 36805 ft | 522 kts | 149° |
| 2026-05-08 04:25 | -36.71175 | 154.93787 | 36805 ft | 523 kts | 149° |
| 2026-05-08 04:25 | -36.77084 | 154.98991 | 36809 ft | 524 kts | 149° |
| 2026-05-08 04:26 | -36.83047 | 155.04252 | 36793 ft | 525 kts | 149° |
| 2026-05-08 04:26 | -36.89021 | 155.09533 | 36792 ft | 527 kts | 149° |
| 2026-05-08 04:27 | -36.94998 | 155.14829 | 36785 ft | 527 kts | 149° |
| 2026-05-08 04:27 | -37.00941 | 155.20103 | 36785 ft | 528 kts | 148° |
| 2026-05-08 04:28 | -37.06940 | 155.25439 | 36776 ft | 529 kts | 148° |
| 2026-05-08 04:28 | -37.12941 | 155.30787 | 36779 ft | 530 kts | 148° |
| 2026-05-08 04:29 | -37.18941 | 155.36144 | 36771 ft | 530 kts | 148° |
| 2026-05-08 04:29 | -37.24955 | 155.41524 | 36771 ft | 531 kts | 148° |
| 2026-05-08 04:30 | -37.30933 | 155.46883 | 36761 ft | 532 kts | 148° |
| 2026-05-08 04:30 | -37.36951 | 155.52289 | 36764 ft | 533 kts | 148° |
| 2026-05-08 04:31 | -37.42978 | 155.57714 | 36757 ft | 533 kts | 147° |
| 2026-05-08 04:31 | -37.49013 | 155.63156 | 36758 ft | 534 kts | 147° |
| 2026-05-08 04:32 | -37.55012 | 155.68578 | 36746 ft | 534 kts | 147° |
| 2026-05-08 04:32 | -37.61056 | 155.74051 | 36747 ft | 535 kts | 147° |
| 2026-05-08 04:33 | -37.67102 | 155.79537 | 36741 ft | 536 kts | 147° |
| 2026-05-08 04:33 | -37.73153 | 155.85039 | 36747 ft | 536 kts | 147° |
| 2026-05-08 04:34 | -37.79213 | 155.90561 | 36736 ft | 537 kts | 147° |
| 2026-05-08 04:34 | -37.85228 | 155.96052 | 36740 ft | 537 kts | 146° |
| 2026-05-08 04:35 | -37.91291 | 156.01599 | 36734 ft | 538 kts | 146° |
| 2026-05-08 04:35 | -37.97356 | 156.07159 | 36735 ft | 538 kts | 146° |
| 2026-05-08 04:36 | -38.03419 | 156.12730 | 36727 ft | 539 kts | 146° |
| 2026-05-08 04:36 | -38.09454 | 156.18286 | 36731 ft | 539 kts | 146° |
| 2026-05-08 04:37 | -38.15525 | 156.23887 | 36723 ft | 540 kts | 146° |
| 2026-05-08 04:37 | -38.21596 | 156.29499 | 36727 ft | 540 kts | 146° |
| 2026-05-08 04:38 | -38.27682 | 156.35138 | 36719 ft | 541 kts | 146° |
| 2026-05-08 04:38 | -38.33723 | 156.40746 | 36725 ft | 542 kts | 146° |
| 2026-05-08 04:39 | -38.39812 | 156.46412 | 36720 ft | 542 kts | 145° |
| 2026-05-08 04:39 | -38.45907 | 156.52094 | 36721 ft | 543 kts | 145° |
| 2026-05-08 04:40 | -38.48955 | 156.54941 | 36911 ft | 542 kts | 146° |
| 2026-05-08 04:40 | -38.51955 | 156.57759 | 36784 ft | 528 kts | 147° |
| 2026-05-08 04:40 | -38.54864 | 156.60492 | 36715 ft | 512 kts | 147° |
| 2026-05-08 04:40 | -38.57676 | 156.63130 | 36715 ft | 505 kts | 147° |
| 2026-05-08 04:41 | -38.63325 | 156.68419 | 36715 ft | 503 kts | 147° |
| 2026-05-08 04:41 | -38.68971 | 156.73714 | 36714 ft | 504 kts | 147° |
| 2026-05-08 04:42 | -38.74622 | 156.79033 | 36716 ft | 504 kts | 147° |
| 2026-05-08 04:42 | -38.80261 | 156.84356 | 36714 ft | 503 kts | 147° |
| 2026-05-08 04:43 | -38.85859 | 156.89650 | 36711 ft | 503 kts | 147° |
| 2026-05-08 04:43 | -38.91487 | 156.94984 | 36715 ft | 503 kts | 147° |
| 2026-05-08 04:44 | -38.97116 | 157.00329 | 36714 ft | 503 kts | 147° |
| 2026-05-08 04:44 | -39.02745 | 157.05684 | 36715 ft | 503 kts | 146° |
| 2026-05-08 04:45 | -39.08327 | 157.11007 | 36711 ft | 503 kts | 146° |
| 2026-05-08 04:45 | -39.13943 | 157.16372 | 36709 ft | 502 kts | 146° |
| 2026-05-08 04:46 | -39.19553 | 157.21742 | 36708 ft | 503 kts | 146° |
| 2026-05-08 04:46 | -39.25166 | 157.27127 | 36707 ft | 502 kts | 146° |
| 2026-05-08 04:47 | -39.30735 | 157.32480 | 36706 ft | 502 kts | 146° |
| 2026-05-08 04:47 | -39.36335 | 157.37874 | 36704 ft | 502 kts | 146° |
| 2026-05-08 04:48 | -39.41930 | 157.43273 | 36704 ft | 502 kts | 146° |
| 2026-05-08 04:48 | -39.47520 | 157.48680 | 36700 ft | 502 kts | 146° |
| 2026-05-08 04:49 | -39.53104 | 157.54092 | 36701 ft | 501 kts | 146° |
| 2026-05-08 04:49 | -39.58649 | 157.59475 | 36705 ft | 501 kts | 146° |
| 2026-05-08 04:50 | -39.64231 | 157.64907 | 36702 ft | 501 kts | 145° |
| 2026-05-08 04:50 | -39.69803 | 157.70341 | 36704 ft | 501 kts | 145° |
| 2026-05-08 04:51 | -39.75374 | 157.75784 | 36705 ft | 501 kts | 145° |
| 2026-05-08 04:51 | -39.80908 | 157.81203 | 36698 ft | 501 kts | 145° |
| 2026-05-08 04:52 | -39.86478 | 157.86668 | 36698 ft | 501 kts | 145° |
| 2026-05-08 04:52 | -39.92043 | 157.92140 | 36695 ft | 501 kts | 145° |
| 2026-05-08 04:53 | -39.97606 | 157.97622 | 36694 ft | 501 kts | 145° |
| 2026-05-08 04:53 | -40.03151 | 158.03040 | 36691 ft | 501 kts | 146° |
| 2026-05-08 04:54 | -40.08845 | 158.08284 | 36689 ft | 501 kts | 147° |
| 2026-05-08 04:54 | -40.14550 | 158.13495 | 36689 ft | 501 kts | 147° |
| 2026-05-08 04:55 | -40.20238 | 158.18752 | 36689 ft | 501 kts | 147° |
| 2026-05-08 04:55 | -40.25877 | 158.24005 | 36689 ft | 501 kts | 147° |
| 2026-05-08 04:56 | -40.31552 | 158.29308 | 36683 ft | 501 kts | 147° |
| 2026-05-08 04:56 | -40.37222 | 158.34620 | 36686 ft | 501 kts | 147° |
| 2026-05-08 04:57 | -40.42889 | 158.39936 | 36667 ft | 501 kts | 147° |
| 2026-05-08 04:57 | -40.48510 | 158.45217 | 36683 ft | 501 kts | 147° |
| 2026-05-08 04:58 | -40.54171 | 158.50549 | 36685 ft | 501 kts | 147° |
| 2026-05-08 04:58 | -40.59829 | 158.55889 | 36676 ft | 501 kts | 147° |
| 2026-05-08 04:59 | -40.65487 | 158.61240 | 36673 ft | 501 kts | 147° |
| 2026-05-08 04:59 | -40.71103 | 158.66564 | 36678 ft | 501 kts | 147° |
| 2026-05-08 05:00 | -40.76755 | 158.71932 | 36672 ft | 501 kts | 147° |
| 2026-05-08 05:00 | -40.82409 | 158.77310 | 36668 ft | 501 kts | 147° |
| 2026-05-08 05:01 | -40.88056 | 158.82700 | 36658 ft | 501 kts | 147° |
| 2026-05-08 05:01 | -40.93704 | 158.88098 | 36671 ft | 501 kts | 146° |
| 2026-05-08 05:02 | -40.99308 | 158.93465 | 36652 ft | 501 kts | 146° |
| 2026-05-08 05:02 | -41.04950 | 158.98882 | 36649 ft | 501 kts | 146° |
| 2026-05-08 05:03 | -41.10584 | 159.04307 | 36663 ft | 501 kts | 146° |
| 2026-05-08 05:03 | -41.16217 | 159.09743 | 36662 ft | 501 kts | 146° |
| 2026-05-08 05:04 | -41.21849 | 159.15185 | 36658 ft | 501 kts | 146° |
| 2026-05-08 05:04 | -41.27450 | 159.20601 | 36657 ft | 501 kts | 146° |
| 2026-05-08 05:05 | -41.33080 | 159.26069 | 36646 ft | 501 kts | 146° |
| 2026-05-08 05:05 | -41.38710 | 159.31552 | 36643 ft | 502 kts | 146° |
| 2026-05-08 05:06 | -41.44338 | 159.37042 | 36644 ft | 502 kts | 146° |
| 2026-05-08 05:06 | -41.49935 | 159.42513 | 36639 ft | 502 kts | 146° |
| 2026-05-08 05:07 | -41.55567 | 159.48025 | 36636 ft | 502 kts | 146° |
| 2026-05-08 05:07 | -41.61194 | 159.53546 | 36635 ft | 502 kts | 146° |
| 2026-05-08 05:08 | -41.66822 | 159.59081 | 36631 ft | 502 kts | 146° |
| 2026-05-08 05:08 | -41.72417 | 159.64595 | 36628 ft | 503 kts | 146° |
| 2026-05-08 05:09 | -41.78041 | 159.70150 | 36627 ft | 503 kts | 146° |
| 2026-05-08 05:09 | -41.83670 | 159.75720 | 36625 ft | 503 kts | 146° |
| 2026-05-08 05:10 | -41.92107 | 159.84096 | 36617 ft | 503 kts | 145° |
| 2026-05-08 05:11 | -41.97698 | 159.89662 | 36618 ft | 504 kts | 145° |
| 2026-05-08 05:11 | -42.03323 | 159.95278 | 36613 ft | 504 kts | 145° |
| 2026-05-08 05:12 | -42.08953 | 160.00909 | 36605 ft | 504 kts | 145° |
| 2026-05-08 05:12 | -42.14586 | 160.06556 | 36613 ft | 505 kts | 145° |
| 2026-05-08 05:13 | -42.20186 | 160.12183 | 36606 ft | 505 kts | 145° |
| 2026-05-08 05:13 | -42.25825 | 160.17861 | 36603 ft | 506 kts | 145° |
| 2026-05-08 05:14 | -42.31461 | 160.23548 | 36601 ft | 506 kts | 145° |
| 2026-05-08 05:14 | -42.37100 | 160.29251 | 36596 ft | 507 kts | 145° |
| 2026-05-08 05:15 | -42.42746 | 160.34971 | 36595 ft | 507 kts | 144° |
| 2026-05-08 05:15 | -42.48359 | 160.40678 | 36591 ft | 508 kts | 144° |
| 2026-05-08 05:16 | -42.54006 | 160.46434 | 36590 ft | 509 kts | 144° |
| 2026-05-08 05:16 | -42.59660 | 160.52205 | 36586 ft | 509 kts | 144° |
| 2026-05-08 05:17 | -42.65318 | 160.57993 | 36583 ft | 509 kts | 144° |
| 2026-05-08 05:17 | -42.70978 | 160.63801 | 36578 ft | 510 kts | 144° |
| 2026-05-08 05:18 | -42.76603 | 160.69585 | 36576 ft | 511 kts | 144° |
| 2026-05-08 05:18 | -42.82274 | 160.75428 | 36575 ft | 511 kts | 144° |
| 2026-05-08 05:19 | -42.87949 | 160.81291 | 36570 ft | 512 kts | 144° |
| 2026-05-08 05:19 | -42.93541 | 160.87080 | 36566 ft | 512 kts | 143° |
| 2026-05-08 05:20 | -42.99182 | 160.92936 | 36564 ft | 513 kts | 143° |
| 2026-05-08 05:20 | -43.04864 | 160.98850 | 36561 ft | 513 kts | 143° |
| 2026-05-08 05:21 | -43.10539 | 161.04765 | 36559 ft | 513 kts | 143° |
| 2026-05-08 05:21 | -43.16223 | 161.10708 | 36556 ft | 514 kts | 143° |
| 2026-05-08 05:22 | -43.21909 | 161.16666 | 36552 ft | 515 kts | 143° |
| 2026-05-08 05:22 | -43.27563 | 161.22603 | 36548 ft | 516 kts | 143° |
| 2026-05-08 05:23 | -43.33259 | 161.28598 | 36545 ft | 516 kts | 143° |
| 2026-05-08 05:23 | -43.38948 | 161.34601 | 36543 ft | 516 kts | 143° |
| 2026-05-08 05:24 | -43.44642 | 161.40627 | 36540 ft | 517 kts | 142° |
| 2026-05-08 05:24 | -43.50337 | 161.46667 | 36537 ft | 517 kts | 142° |
| 2026-05-08 05:25 | -43.56007 | 161.52694 | 36530 ft | 518 kts | 142° |
| 2026-05-08 05:25 | -43.61708 | 161.58771 | 36530 ft | 519 kts | 142° |
| 2026-05-08 05:26 | -43.67438 | 161.64892 | 36528 ft | 520 kts | 142° |
| 2026-05-08 05:26 | -43.73161 | 161.71020 | 36523 ft | 521 kts | 142° |
| 2026-05-08 05:27 | -43.78852 | 161.77131 | 36521 ft | 521 kts | 141° |
| 2026-05-08 05:27 | -43.84576 | 161.83292 | 36518 ft | 522 kts | 141° |
| 2026-05-08 05:28 | -43.90306 | 161.89475 | 36515 ft | 522 kts | 141° |
| 2026-05-08 05:28 | -43.96027 | 161.95663 | 36515 ft | 522 kts | 141° |
| 2026-05-08 05:29 | -44.01741 | 162.01891 | 36690 ft | 523 kts | 139° |
| 2026-05-08 05:29 | -44.04470 | 162.05135 | 36938 ft | 522 kts | 137° |
| 2026-05-08 05:29 | -44.07160 | 162.08519 | 37153 ft | 522 kts | 136° |
| 2026-05-08 05:29 | -44.09822 | 162.11932 | 37361 ft | 522 kts | 137° |
| 2026-05-08 05:30 | -44.12495 | 162.15356 | 37556 ft | 522 kts | 137° |
| 2026-05-08 05:30 | -44.15175 | 162.18762 | 37750 ft | 522 kts | 138° |
| 2026-05-08 05:30 | -44.17863 | 162.22150 | 37931 ft | 521 kts | 138° |
| 2026-05-08 05:30 | -44.20561 | 162.25532 | 38158 ft | 521 kts | 139° |
| 2026-05-08 05:31 | -44.23251 | 162.28895 | 38327 ft | 520 kts | 139° |
| 2026-05-08 05:31 | -44.25947 | 162.32265 | 38435 ft | 521 kts | 139° |
| 2026-05-08 05:31 | -44.28612 | 162.35600 | 38487 ft | 523 kts | 139° |
| 2026-05-08 05:32 | -44.34038 | 162.42403 | 38491 ft | 525 kts | 139° |
| 2026-05-08 05:32 | -44.39461 | 162.49223 | 38489 ft | 524 kts | 139° |
| 2026-05-08 05:33 | -44.44870 | 162.56047 | 38489 ft | 524 kts | 139° |
| 2026-05-08 05:33 | -44.49372 | 162.61739 | 38479 ft | 524 kts | 139° |
| 2026-05-08 05:34 | -44.55659 | 162.69710 | 38484 ft | 525 kts | 138° |
| 2026-05-08 05:34 | -44.61070 | 162.76592 | 38478 ft | 525 kts | 138° |
| 2026-05-08 05:35 | -44.66475 | 162.83479 | 38479 ft | 525 kts | 138° |
| 2026-05-08 05:35 | -44.70966 | 162.89218 | 38472 ft | 525 kts | 138° |
| 2026-05-08 05:36 | -44.77244 | 162.97261 | 38469 ft | 525 kts | 138° |
| 2026-05-08 05:36 | -44.81758 | 163.03058 | 38467 ft | 525 kts | 138° |
| 2026-05-08 05:37 | -44.87117 | 163.09959 | 38465 ft | 525 kts | 138° |
| 2026-05-08 05:37 | -44.92495 | 163.16902 | 38465 ft | 525 kts | 138° |
| 2026-05-08 05:38 | -44.98753 | 163.25005 | 38462 ft | 525 kts | 137° |
| 2026-05-08 05:38 | -45.03254 | 163.30849 | 38460 ft | 525 kts | 137° |
| 2026-05-08 05:39 | -45.08590 | 163.37794 | 38454 ft | 525 kts | 137° |
| 2026-05-08 05:39 | -45.13964 | 163.44805 | 38454 ft | 525 kts | 137° |
| 2026-05-08 05:40 | -45.19333 | 163.51831 | 38452 ft | 526 kts | 137° |
| 2026-05-08 05:40 | -45.24700 | 163.58872 | 38449 ft | 526 kts | 137° |
| 2026-05-08 05:41 | -45.30032 | 163.65887 | 38449 ft | 526 kts | 137° |
| 2026-05-08 05:41 | -45.35399 | 163.72966 | 38446 ft | 526 kts | 137° |
| 2026-05-08 05:42 | -45.40763 | 163.80060 | 38440 ft | 526 kts | 137° |
| 2026-05-08 05:42 | -45.46126 | 163.87173 | 38441 ft | 527 kts | 137° |
| 2026-05-08 05:43 | -45.51445 | 163.94246 | 38442 ft | 527 kts | 137° |
| 2026-05-08 05:43 | -45.56796 | 164.01380 | 38440 ft | 527 kts | 136° |
| 2026-05-08 05:44 | -45.62147 | 164.08535 | 38437 ft | 527 kts | 136° |
| 2026-05-08 05:44 | -45.67496 | 164.15706 | 38437 ft | 527 kts | 136° |
| 2026-05-08 05:45 | -45.72837 | 164.22887 | 38435 ft | 527 kts | 136° |
| 2026-05-08 05:45 | -45.78137 | 164.30033 | 38435 ft | 527 kts | 136° |
| 2026-05-08 05:46 | -45.83475 | 164.37248 | 38429 ft | 527 kts | 136° |
| 2026-05-08 05:46 | -45.88801 | 164.44468 | 38430 ft | 527 kts | 136° |
| 2026-05-08 05:47 | -45.94088 | 164.51655 | 38430 ft | 527 kts | 136° |
| 2026-05-08 05:47 | -45.99403 | 164.58901 | 38426 ft | 527 kts | 136° |
| 2026-05-08 05:48 | -46.04719 | 164.66168 | 38427 ft | 527 kts | 136° |
| 2026-05-08 05:48 | -46.10027 | 164.73444 | 38424 ft | 527 kts | 136° |
| 2026-05-08 05:49 | -46.15339 | 164.80746 | 38425 ft | 527 kts | 136° |
| 2026-05-08 05:49 | -46.20612 | 164.88013 | 38424 ft | 528 kts | 136° |
| 2026-05-08 05:50 | -46.25914 | 164.95342 | 38424 ft | 528 kts | 136° |
| 2026-05-08 05:50 | -46.31216 | 165.02693 | 38426 ft | 528 kts | 136° |
| 2026-05-08 05:51 | -46.36516 | 165.10061 | 38425 ft | 529 kts | 136° |
| 2026-05-08 05:51 | -46.41783 | 165.17404 | 38423 ft | 530 kts | 136° |
| 2026-05-08 05:52 | -46.47088 | 165.24820 | 38419 ft | 530 kts | 136° |
| 2026-05-08 05:52 | -46.52391 | 165.32253 | 38418 ft | 530 kts | 135° |
| 2026-05-08 05:53 | -46.57695 | 165.39711 | 38421 ft | 531 kts | 135° |
| 2026-05-08 05:53 | -46.62961 | 165.47138 | 38417 ft | 531 kts | 135° |
| 2026-05-08 05:54 | -46.68261 | 165.54632 | 38419 ft | 531 kts | 135° |
| 2026-05-08 05:54 | -46.73560 | 165.62147 | 38416 ft | 532 kts | 135° |
| 2026-05-08 05:55 | -46.78863 | 165.69689 | 38416 ft | 533 kts | 135° |
| 2026-05-08 05:55 | -46.84164 | 165.77251 | 38419 ft | 533 kts | 135° |
| 2026-05-08 05:56 | -46.89427 | 165.84781 | 38418 ft | 533 kts | 135° |
| 2026-05-08 05:56 | -46.94728 | 165.92388 | 38417 ft | 534 kts | 135° |
| 2026-05-08 05:57 | -47.00032 | 166.00019 | 38417 ft | 535 kts | 135° |
| 2026-05-08 05:57 | -47.05352 | 166.07622 | 38416 ft | 536 kts | 135° |
| 2026-05-08 05:58 | -47.10688 | 166.15178 | 38419 ft | 536 kts | 135° |
| 2026-05-08 05:58 | -47.16050 | 166.22803 | 38418 ft | 537 kts | 135° |
| 2026-05-08 05:59 | -47.21403 | 166.30455 | 38418 ft | 538 kts | 135° |
| 2026-05-08 05:59 | -47.26767 | 166.38151 | 38416 ft | 539 kts | 135° |
| 2026-05-08 06:00 | -47.32091 | 166.45815 | 38415 ft | 539 kts | 135° |
| 2026-05-08 06:00 | -47.37459 | 166.53563 | 38419 ft | 540 kts | 135° |
| 2026-05-08 06:01 | -47.42829 | 166.61339 | 38418 ft | 541 kts | 135° |
| 2026-05-08 06:01 | -47.48196 | 166.69133 | 38414 ft | 541 kts | 135° |
| 2026-05-08 06:02 | -47.53534 | 166.76908 | 38418 ft | 543 kts | 135° |
| 2026-05-08 06:02 | -47.58915 | 166.84769 | 38417 ft | 544 kts | 135° |
| 2026-05-08 06:03 | -47.64300 | 166.92660 | 38415 ft | 545 kts | 135° |
| 2026-05-08 06:03 | -47.69685 | 167.00577 | 38415 ft | 544 kts | 135° |
| 2026-05-08 06:04 | -47.75023 | 167.08448 | 38414 ft | 544 kts | 135° |
| 2026-05-08 06:04 | -47.80389 | 167.16384 | 38414 ft | 545 kts | 135° |
| 2026-05-08 06:05 | -47.85760 | 167.24353 | 38410 ft | 546 kts | 135° |
| 2026-05-08 06:05 | -47.91132 | 167.32348 | 38415 ft | 546 kts | 135° |
| 2026-05-08 06:06 | -47.96503 | 167.40365 | 38416 ft | 546 kts | 135° |
| 2026-05-08 06:06 | -48.01828 | 167.48340 | 38413 ft | 546 kts | 135° |
| 2026-05-08 06:07 | -48.07189 | 167.56394 | 38417 ft | 546 kts | 135° |
| 2026-05-08 06:07 | -48.12549 | 167.64470 | 38416 ft | 547 kts | 135° |
| 2026-05-08 06:08 | -48.17909 | 167.72573 | 38415 ft | 548 kts | 134° |
| 2026-05-08 06:08 | -48.23229 | 167.80641 | 38413 ft | 548 kts | 134° |
| 2026-05-08 06:09 | -48.28576 | 167.88774 | 38414 ft | 548 kts | 134° |
| 2026-05-08 06:09 | -48.33919 | 167.96926 | 38411 ft | 548 kts | 134° |
| 2026-05-08 06:10 | -48.39261 | 168.05106 | 38413 ft | 548 kts | 134° |
| 2026-05-08 06:10 | -48.44600 | 168.13305 | 38411 ft | 549 kts | 134° |
| 2026-05-08 06:11 | -48.49910 | 168.21486 | 38413 ft | 550 kts | 134° |
| 2026-05-08 06:11 | -48.55251 | 168.29742 | 38410 ft | 550 kts | 134° |
| 2026-05-08 06:12 | -48.60589 | 168.38018 | 38407 ft | 550 kts | 134° |
| 2026-05-08 06:12 | -48.65918 | 168.46308 | 38409 ft | 550 kts | 134° |
| 2026-05-08 06:13 | -48.71214 | 168.54573 | 38408 ft | 551 kts | 134° |
| 2026-05-08 06:13 | -48.76543 | 168.62918 | 38405 ft | 551 kts | 134° |
| 2026-05-08 06:14 | -48.81875 | 168.71292 | 38408 ft | 552 kts | 134° |
| 2026-05-08 06:14 | -48.87209 | 168.79699 | 38401 ft | 553 kts | 134° |
| 2026-05-08 06:15 | -48.92540 | 168.88126 | 38404 ft | 553 kts | 134° |
| 2026-05-08 06:15 | -48.97830 | 168.96518 | 38407 ft | 553 kts | 134° |
| 2026-05-08 06:16 | -49.03178 | 169.04960 | 38402 ft | 554 kts | 135° |
| 2026-05-08 06:16 | -49.08660 | 169.13236 | 38399 ft | 555 kts | 136° |
| 2026-05-08 06:17 | -49.16873 | 169.25615 | 38407 ft | 555 kts | 135° |
| 2026-05-08 06:17 | -49.22337 | 169.33956 | 38405 ft | 555 kts | 135° |
| 2026-05-08 06:18 | -49.27796 | 169.42338 | 38404 ft | 556 kts | 135° |
| 2026-05-08 06:18 | -49.33251 | 169.50742 | 38402 ft | 556 kts | 135° |
| 2026-05-08 06:19 | -49.38671 | 169.59116 | 38405 ft | 557 kts | 135° |
| 2026-05-08 06:19 | -49.44129 | 169.67576 | 38401 ft | 557 kts | 135° |
| 2026-05-08 06:20 | -49.49577 | 169.76050 | 38402 ft | 557 kts | 135° |
| 2026-05-08 06:20 | -49.55021 | 169.84546 | 38407 ft | 557 kts | 135° |
| 2026-05-08 06:21 | -49.60462 | 169.93066 | 38406 ft | 558 kts | 135° |
| 2026-05-08 06:21 | -49.65869 | 170.01561 | 38408 ft | 559 kts | 135° |
| 2026-05-08 06:22 | -49.71312 | 170.10142 | 38406 ft | 559 kts | 135° |
| 2026-05-08 06:22 | -49.76749 | 170.18743 | 38407 ft | 559 kts | 135° |
| 2026-05-08 06:23 | -49.82185 | 170.27371 | 38404 ft | 560 kts | 135° |
| 2026-05-08 06:23 | -49.87574 | 170.35954 | 38403 ft | 560 kts | 135° |
| 2026-05-08 06:24 | -49.93009 | 170.44640 | 38407 ft | 561 kts | 135° |
| 2026-05-08 06:24 | -49.98432 | 170.53336 | 38402 ft | 561 kts | 134° |
| 2026-05-08 06:25 | -50.03855 | 170.62064 | 38403 ft | 561 kts | 134° |
| 2026-05-08 06:25 | -50.09231 | 170.70746 | 38406 ft | 561 kts | 134° |
| 2026-05-08 06:26 | -50.14648 | 170.79524 | 38405 ft | 561 kts | 134° |
| 2026-05-08 06:26 | -50.20058 | 170.88322 | 38403 ft | 562 kts | 134° |
| 2026-05-08 06:27 | -50.25459 | 170.97135 | 38405 ft | 562 kts | 134° |
| 2026-05-08 06:27 | -50.30829 | 171.05928 | 38401 ft | 563 kts | 134° |
| 2026-05-08 06:28 | -50.36229 | 171.14801 | 38409 ft | 563 kts | 134° |
| 2026-05-08 06:28 | -50.41625 | 171.23699 | 38401 ft | 563 kts | 134° |
| 2026-05-08 06:29 | -50.47013 | 171.32614 | 38405 ft | 563 kts | 134° |
| 2026-05-08 06:29 | -50.52404 | 171.41568 | 38401 ft | 564 kts | 134° |
| 2026-05-08 06:30 | -50.57752 | 171.50482 | 38404 ft | 564 kts | 134° |
| 2026-05-08 06:30 | -50.63133 | 171.59484 | 38404 ft | 565 kts | 134° |
| 2026-05-08 06:31 | -50.68518 | 171.68522 | 38405 ft | 565 kts | 134° |
| 2026-05-08 06:31 | -50.73892 | 171.77576 | 38403 ft | 566 kts | 134° |
| 2026-05-08 06:32 | -50.79267 | 171.86664 | 38404 ft | 566 kts | 134° |
| 2026-05-08 06:32 | -50.84595 | 171.95705 | 38402 ft | 566 kts | 134° |
| 2026-05-08 06:33 | -50.89959 | 172.04841 | 38409 ft | 567 kts | 134° |
| 2026-05-08 06:33 | -50.95325 | 172.14013 | 38406 ft | 568 kts | 134° |
| 2026-05-08 06:34 | -51.00688 | 172.23212 | 38404 ft | 568 kts | 134° |
| 2026-05-08 06:34 | -51.06015 | 172.32385 | 38405 ft | 568 kts | 134° |
| 2026-05-08 06:35 | -51.11367 | 172.41633 | 38405 ft | 568 kts | 134° |
| 2026-05-08 06:35 | -51.16715 | 172.50909 | 38403 ft | 569 kts | 134° |
| 2026-05-08 06:36 | -51.22065 | 172.60223 | 38403 ft | 569 kts | 134° |
| 2026-05-08 06:36 | -51.27371 | 172.69494 | 38399 ft | 570 kts | 134° |
| 2026-05-08 06:37 | -51.32718 | 172.78873 | 38403 ft | 571 kts | 134° |
| 2026-05-08 06:37 | -51.38055 | 172.88268 | 38402 ft | 571 kts | 134° |
| 2026-05-08 06:38 | -51.43397 | 172.97706 | 38402 ft | 571 kts | 134° |
| 2026-05-08 06:38 | -51.48726 | 173.07159 | 38405 ft | 572 kts | 134° |
| 2026-05-08 06:39 | -51.54022 | 173.16586 | 38402 ft | 572 kts | 133° |
| 2026-05-08 06:39 | -51.59344 | 173.26097 | 38404 ft | 573 kts | 133° |
| 2026-05-08 06:40 | -51.64666 | 173.35643 | 38404 ft | 573 kts | 133° |
| 2026-05-08 06:40 | -51.69980 | 173.45212 | 38405 ft | 573 kts | 133° |
| 2026-05-08 06:41 | -51.75295 | 173.54821 | 38406 ft | 574 kts | 133° |
| 2026-05-08 06:41 | -51.80570 | 173.64390 | 38406 ft | 574 kts | 133° |
| 2026-05-08 06:42 | -51.85878 | 173.74058 | 38409 ft | 575 kts | 133° |
| 2026-05-08 06:42 | -51.91180 | 173.83754 | 38405 ft | 575 kts | 133° |
| 2026-05-08 06:43 | -51.96478 | 173.93478 | 38408 ft | 576 kts | 133° |
| 2026-05-08 06:43 | -52.01771 | 174.03235 | 38409 ft | 576 kts | 133° |
| 2026-05-08 06:44 | -52.07012 | 174.12952 | 38409 ft | 576 kts | 133° |
| 2026-05-08 06:44 | -52.12286 | 174.22775 | 38409 ft | 577 kts | 133° |
| 2026-05-08 06:45 | -52.17559 | 174.32633 | 38410 ft | 577 kts | 133° |
| 2026-05-08 06:45 | -52.22824 | 174.42512 | 38408 ft | 578 kts | 133° |
| 2026-05-08 06:46 | -52.28054 | 174.52366 | 38407 ft | 579 kts | 133° |
| 2026-05-08 06:46 | -52.33318 | 174.62321 | 38407 ft | 579 kts | 133° |
| 2026-05-08 06:47 | -52.38578 | 174.72308 | 38408 ft | 579 kts | 133° |
| 2026-05-08 06:47 | -52.43827 | 174.82316 | 38408 ft | 579 kts | 133° |
| 2026-05-08 06:48 | -52.49041 | 174.92295 | 38394 ft | 580 kts | 132° |
| 2026-05-08 06:48 | -52.54281 | 175.02363 | 38399 ft | 580 kts | 132° |
| 2026-05-08 06:49 | -52.59517 | 175.12465 | 38408 ft | 581 kts | 132° |
| 2026-05-08 06:49 | -52.64745 | 175.22593 | 38414 ft | 581 kts | 132° |
| 2026-05-08 06:50 | -52.69976 | 175.32767 | 38414 ft | 582 kts | 132° |
| 2026-05-08 06:50 | -52.75165 | 175.42901 | 38414 ft | 582 kts | 132° |
| 2026-05-08 06:51 | -52.80383 | 175.53133 | 38410 ft | 583 kts | 132° |
| 2026-05-08 06:51 | -52.85598 | 175.63401 | 38416 ft | 583 kts | 132° |
| 2026-05-08 06:52 | -52.90806 | 175.73698 | 38418 ft | 583 kts | 132° |
| 2026-05-08 06:52 | -52.96012 | 175.84031 | 38417 ft | 584 kts | 132° |
| 2026-05-08 06:53 | -53.01172 | 175.94318 | 38415 ft | 584 kts | 131° |
| 2026-05-08 06:53 | -53.06365 | 176.04712 | 38421 ft | 585 kts | 131° |
| 2026-05-08 06:54 | -53.11552 | 176.15137 | 38419 ft | 585 kts | 131° |
| 2026-05-08 06:54 | -53.16730 | 176.25588 | 38423 ft | 585 kts | 131° |
| 2026-05-08 06:55 | -53.21875 | 176.36015 | 38417 ft | 586 kts | 131° |
| 2026-05-08 06:55 | -53.27048 | 176.46545 | 38418 ft | 587 kts | 131° |
| 2026-05-08 06:56 | -53.32211 | 176.57098 | 38417 ft | 587 kts | 131° |
| 2026-05-08 06:56 | -53.37371 | 176.67689 | 38420 ft | 587 kts | 131° |
| 2026-05-08 06:57 | -53.42524 | 176.78311 | 38423 ft | 588 kts | 131° |
| 2026-05-08 06:57 | -53.47636 | 176.88894 | 38424 ft | 588 kts | 131° |
| 2026-05-08 06:58 | -53.52780 | 176.99588 | 38423 ft | 589 kts | 131° |
| 2026-05-08 06:58 | -53.57919 | 177.10318 | 38420 ft | 589 kts | 131° |
| 2026-05-08 06:59 | -53.63057 | 177.21091 | 38429 ft | 590 kts | 131° |
| 2026-05-08 06:59 | -53.68147 | 177.31812 | 38428 ft | 590 kts | 130° |
| 2026-05-08 07:00 | -53.73275 | 177.42656 | 38423 ft | 591 kts | 130° |
| 2026-05-08 07:00 | -53.78391 | 177.53525 | 38426 ft | 591 kts | 130° |
| 2026-05-08 07:01 | -53.83505 | 177.64435 | 38424 ft | 592 kts | 130° |
| 2026-05-08 07:01 | -53.88571 | 177.75291 | 38431 ft | 592 kts | 130° |
| 2026-05-08 07:02 | -53.93672 | 177.86269 | 38437 ft | 593 kts | 130° |
| 2026-05-08 07:02 | -53.98768 | 177.97286 | 38432 ft | 593 kts | 130° |
| 2026-05-08 07:03 | -54.03810 | 178.08380 | 38430 ft | 593 kts | 129° |
| 2026-05-08 07:03 | -54.08700 | 178.19593 | 38432 ft | 594 kts | 128° |
| 2026-05-08 07:04 | -54.13605 | 178.30926 | 38433 ft | 594 kts | 128° |
| 2026-05-08 07:04 | -54.18521 | 178.42259 | 38433 ft | 594 kts | 128° |
| 2026-05-08 07:05 | -54.23441 | 178.53611 | 38434 ft | 595 kts | 128° |
| 2026-05-08 07:05 | -54.28321 | 178.64917 | 38441 ft | 595 kts | 128° |
| 2026-05-08 07:06 | -54.33229 | 178.76344 | 38435 ft | 596 kts | 128° |
| 2026-05-08 07:06 | -54.38123 | 178.87793 | 38419 ft | 596 kts | 128° |
| 2026-05-08 07:07 | -54.43013 | 178.99291 | 38440 ft | 596 kts | 128° |
| 2026-05-08 07:07 | -54.47892 | 179.10815 | 38442 ft | 596 kts | 127° |
| 2026-05-08 07:08 | -54.52727 | 179.22286 | 38432 ft | 596 kts | 127° |
| 2026-05-08 07:08 | -54.57580 | 179.33852 | 38439 ft | 597 kts | 127° |
| 2026-05-08 07:09 | -54.62437 | 179.45484 | 38440 ft | 597 kts | 127° |
| 2026-05-08 07:09 | -54.67273 | 179.57119 | 38440 ft | 597 kts | 127° |
| 2026-05-08 07:10 | -54.72078 | 179.68733 | 38447 ft | 598 kts | 127° |
| 2026-05-08 07:10 | -54.76907 | 179.80462 | 38444 ft | 598 kts | 127° |
| 2026-05-08 07:11 | -54.81722 | 179.92211 | 38445 ft | 598 kts | 127° |
| 2026-05-08 07:11 | -54.86531 | -179.96001 | 38446 ft | 599 kts | 127° |
| 2026-05-08 07:12 | -54.91303 | -179.84245 | 38444 ft | 599 kts | 127° |
| 2026-05-08 07:12 | -54.96090 | -179.72396 | 38447 ft | 599 kts | 127° |
| 2026-05-08 07:13 | -55.00869 | -179.60509 | 38447 ft | 599 kts | 127° |
| 2026-05-08 07:13 | -55.05639 | -179.48589 | 38448 ft | 599 kts | 127° |
| 2026-05-08 07:14 | -55.10400 | -179.36634 | 38449 ft | 600 kts | 127° |
| 2026-05-08 07:14 | -55.15116 | -179.24735 | 38454 ft | 600 kts | 126° |
| 2026-05-08 07:15 | -55.19855 | -179.12717 | 38451 ft | 600 kts | 126° |
| 2026-05-08 07:15 | -55.24583 | -179.00668 | 38453 ft | 600 kts | 126° |
| 2026-05-08 07:16 | -55.29293 | -178.88609 | 38457 ft | 600 kts | 126° |
| 2026-05-08 07:16 | -55.33969 | -178.76578 | 38454 ft | 600 kts | 126° |
| 2026-05-08 07:17 | -55.38658 | -178.64451 | 38457 ft | 600 kts | 126° |
| 2026-05-08 07:17 | -55.43336 | -178.52295 | 38458 ft | 600 kts | 126° |
| 2026-05-08 07:18 | -55.48010 | -178.40090 | 38464 ft | 600 kts | 126° |
| 2026-05-08 07:18 | -55.52630 | -178.27967 | 38465 ft | 600 kts | 126° |
| 2026-05-08 07:19 | -55.57274 | -178.15719 | 38455 ft | 600 kts | 126° |
| 2026-05-08 07:19 | -55.61897 | -178.03464 | 38461 ft | 599 kts | 126° |
| 2026-05-08 07:20 | -55.66510 | -177.91175 | 38465 ft | 599 kts | 126° |
| 2026-05-08 07:20 | -55.71081 | -177.78937 | 38458 ft | 599 kts | 126° |
| 2026-05-08 07:21 | -55.75663 | -177.66605 | 38457 ft | 599 kts | 126° |
| 2026-05-08 07:21 | -55.80234 | -177.54241 | 38462 ft | 598 kts | 126° |
| 2026-05-08 07:22 | -55.84785 | -177.41868 | 38462 ft | 597 kts | 126° |
| 2026-05-08 07:22 | -55.89288 | -177.29566 | 38464 ft | 597 kts | 126° |
| 2026-05-08 07:23 | -55.93805 | -177.17165 | 38464 ft | 596 kts | 126° |
| 2026-05-08 07:23 | -55.98307 | -177.04740 | 38462 ft | 596 kts | 126° |
| 2026-05-08 07:24 | -56.02789 | -176.92281 | 38464 ft | 596 kts | 125° |
| 2026-05-08 07:24 | -56.07200 | -176.79741 | 38465 ft | 595 kts | 125° |
| 2026-05-08 07:25 | -56.11558 | -176.67251 | 38466 ft | 595 kts | 125° |
| 2026-05-08 07:26 | -56.18117 | -176.48399 | 38465 ft | 594 kts | 125° |
| 2026-05-08 07:26 | -56.22475 | -176.35815 | 38466 ft | 593 kts | 125° |
| 2026-05-08 07:27 | -56.26788 | -176.23290 | 38464 ft | 592 kts | 125° |
| 2026-05-08 07:27 | -56.31110 | -176.10674 | 38463 ft | 592 kts | 125° |
| 2026-05-08 07:28 | -56.35416 | -175.98040 | 38464 ft | 591 kts | 125° |
| 2026-05-08 07:28 | -56.39703 | -175.85392 | 38465 ft | 591 kts | 124° |
| 2026-05-08 07:29 | -56.43979 | -175.72711 | 38464 ft | 591 kts | 124° |
| 2026-05-08 07:29 | -56.48214 | -175.60087 | 38465 ft | 590 kts | 124° |
| 2026-05-08 07:30 | -56.52451 | -175.47388 | 38466 ft | 590 kts | 124° |
| 2026-05-08 07:30 | -56.56678 | -175.34655 | 38464 ft | 589 kts | 124° |
| 2026-05-08 07:31 | -56.60891 | -175.21892 | 38463 ft | 589 kts | 124° |
| 2026-05-08 07:31 | -56.65056 | -175.09212 | 38464 ft | 588 kts | 124° |
| 2026-05-08 07:32 | -56.69228 | -174.96440 | 38464 ft | 588 kts | 124° |
| 2026-05-08 07:32 | -56.73389 | -174.83634 | 38464 ft | 587 kts | 124° |
| 2026-05-08 07:33 | -56.77534 | -174.70806 | 38464 ft | 587 kts | 124° |
| 2026-05-08 07:33 | -56.81639 | -174.58037 | 38465 ft | 587 kts | 124° |
| 2026-05-08 07:34 | -56.85752 | -174.45173 | 38463 ft | 587 kts | 124° |
| 2026-05-08 07:34 | -56.89852 | -174.32277 | 38462 ft | 586 kts | 123° |
| 2026-05-08 07:35 | -56.93936 | -174.19364 | 38461 ft | 586 kts | 123° |
| 2026-05-08 07:35 | -56.98007 | -174.06424 | 38461 ft | 586 kts | 123° |
| 2026-05-08 07:36 | -57.02047 | -173.93447 | 38459 ft | 586 kts | 122° |
| 2026-05-08 07:36 | -57.05904 | -173.80372 | 38460 ft | 586 kts | 121° |
| 2026-05-08 07:37 | -57.09733 | -173.67145 | 38457 ft | 586 kts | 121° |
| 2026-05-08 07:37 | -57.13572 | -173.53916 | 38459 ft | 586 kts | 121° |
| 2026-05-08 07:38 | -57.17411 | -173.40694 | 38460 ft | 585 kts | 121° |
| 2026-05-08 07:38 | -57.21214 | -173.27542 | 38458 ft | 585 kts | 121° |
| 2026-05-08 07:39 | -57.25028 | -173.14267 | 38459 ft | 585 kts | 121° |
| 2026-05-08 07:39 | -57.28821 | -173.00983 | 38459 ft | 585 kts | 121° |
| 2026-05-08 07:40 | -57.32601 | -172.87667 | 38459 ft | 584 kts | 121° |
| 2026-05-08 07:40 | -57.36340 | -172.74420 | 38456 ft | 584 kts | 121° |
| 2026-05-08 07:41 | -57.40090 | -172.61057 | 38457 ft | 584 kts | 121° |
| 2026-05-08 07:41 | -57.43820 | -172.47689 | 38455 ft | 584 kts | 120° |
| 2026-05-08 07:42 | -57.47539 | -172.34282 | 38455 ft | 584 kts | 120° |
| 2026-05-08 07:42 | -57.51240 | -172.20861 | 38451 ft | 583 kts | 120° |
| 2026-05-08 07:43 | -57.54900 | -172.07509 | 38455 ft | 583 kts | 120° |
| 2026-05-08 07:43 | -57.58576 | -171.94022 | 38445 ft | 583 kts | 120° |
| 2026-05-08 07:44 | -57.62231 | -171.80530 | 38445 ft | 583 kts | 120° |
| 2026-05-08 07:44 | -57.65869 | -171.67020 | 38446 ft | 583 kts | 120° |
| 2026-05-08 07:45 | -57.69495 | -171.53473 | 38447 ft | 583 kts | 120° |
| 2026-05-08 07:45 | -57.73083 | -171.39992 | 38442 ft | 583 kts | 119° |
| 2026-05-08 07:46 | -57.76677 | -171.26405 | 38443 ft | 582 kts | 119° |
| 2026-05-08 07:46 | -57.80254 | -171.12800 | 38446 ft | 582 kts | 119° |
| 2026-05-08 07:47 | -57.83822 | -170.99146 | 38445 ft | 582 kts | 119° |
| 2026-05-08 07:47 | -57.87348 | -170.85573 | 38442 ft | 582 kts | 119° |
| 2026-05-08 07:48 | -57.90881 | -170.71887 | 38445 ft | 582 kts | 119° |
| 2026-05-08 07:48 | -57.94402 | -170.58164 | 38441 ft | 582 kts | 118° |
| 2026-05-08 07:49 | -57.97903 | -170.44433 | 38444 ft | 582 kts | 118° |
| 2026-05-08 07:49 | -58.01392 | -170.30666 | 38440 ft | 582 kts | 118° |
| 2026-05-08 07:50 | -58.04842 | -170.16968 | 38439 ft | 582 kts | 118° |
| 2026-05-08 07:50 | -58.08299 | -170.03155 | 38442 ft | 582 kts | 118° |
| 2026-05-08 07:51 | -58.11741 | -169.89320 | 38438 ft | 582 kts | 118° |
| 2026-05-08 07:51 | -58.15167 | -169.75457 | 38442 ft | 581 kts | 118° |
| 2026-05-08 07:52 | -58.18558 | -169.61652 | 38438 ft | 581 kts | 118° |
| 2026-05-08 07:52 | -58.21952 | -169.47746 | 38434 ft | 581 kts | 118° |
| 2026-05-08 07:53 | -58.25332 | -169.33806 | 38432 ft | 581 kts | 117° |
| 2026-05-08 07:53 | -58.28696 | -169.19849 | 38438 ft | 581 kts | 117° |
| 2026-05-08 07:54 | -58.32025 | -169.05945 | 38425 ft | 581 kts | 117° |
| 2026-05-08 07:54 | -58.35354 | -168.91951 | 38429 ft | 581 kts | 117° |
| 2026-05-08 07:55 | -58.38671 | -168.77915 | 38428 ft | 581 kts | 117° |
| 2026-05-08 07:55 | -58.41972 | -168.63857 | 38425 ft | 581 kts | 117° |
| 2026-05-08 07:56 | -58.45258 | -168.49770 | 38429 ft | 581 kts | 117° |
| 2026-05-08 07:56 | -58.48504 | -168.35765 | 38426 ft | 581 kts | 117° |
| 2026-05-08 07:57 | -58.51757 | -168.21635 | 38426 ft | 581 kts | 116° |
| 2026-05-08 07:57 | -58.54995 | -168.07478 | 38421 ft | 581 kts | 116° |
| 2026-05-08 07:58 | -58.58216 | -167.93296 | 38419 ft | 581 kts | 116° |
| 2026-05-08 07:58 | -58.61403 | -167.79177 | 38417 ft | 580 kts | 116° |
| 2026-05-08 07:59 | -58.64589 | -167.64962 | 38416 ft | 580 kts | 116° |
| 2026-05-08 07:59 | -58.67762 | -167.50713 | 38417 ft | 580 kts | 116° |
| 2026-05-08 08:00 | -58.70921 | -167.36429 | 38410 ft | 580 kts | 116° |
| 2026-05-08 08:00 | -58.74044 | -167.22210 | 38410 ft | 580 kts | 116° |
| 2026-05-08 08:01 | -58.77167 | -167.07891 | 38408 ft | 580 kts | 116° |
| 2026-05-08 08:01 | -58.80276 | -166.93539 | 38407 ft | 580 kts | 116° |
| 2026-05-08 08:02 | -58.83370 | -166.79161 | 38401 ft | 580 kts | 115° |
| 2026-05-08 08:02 | -58.86443 | -166.64776 | 38402 ft | 580 kts | 115° |
| 2026-05-08 08:03 | -58.89483 | -166.50448 | 38401 ft | 579 kts | 115° |
| 2026-05-08 08:03 | -58.92525 | -166.36008 | 38396 ft | 579 kts | 115° |
| 2026-05-08 08:04 | -58.95549 | -166.21558 | 38395 ft | 579 kts | 115° |
| 2026-05-08 08:04 | -58.98556 | -166.07082 | 38387 ft | 579 kts | 115° |
| 2026-05-08 08:05 | -59.01577 | -165.92703 | 38384 ft | 578 kts | 117° |
| 2026-05-08 08:05 | -59.04919 | -165.78566 | 38381 ft | 576 kts | 119° |
| 2026-05-08 08:06 | -59.08330 | -165.64442 | 38382 ft | 577 kts | 118° |
| 2026-05-08 08:06 | -59.11109 | -165.52667 | 38384 ft | 577 kts | 118° |
| 2026-05-08 08:07 | -59.14935 | -165.36119 | 38377 ft | 576 kts | 117° |
| 2026-05-08 08:07 | -59.18198 | -165.21847 | 38374 ft | 576 kts | 117° |
| 2026-05-08 08:08 | -59.20897 | -165.09978 | 38373 ft | 576 kts | 117° |
| 2026-05-08 08:08 | -59.24134 | -164.95672 | 38369 ft | 576 kts | 117° |
| 2026-05-08 08:09 | -59.27873 | -164.79033 | 38365 ft | 576 kts | 117° |
| 2026-05-08 08:09 | -59.30559 | -164.66994 | 38360 ft | 575 kts | 117° |
| 2026-05-08 08:10 | -59.33724 | -164.52724 | 38359 ft | 575 kts | 117° |
| 2026-05-08 08:10 | -59.36894 | -164.38328 | 38356 ft | 575 kts | 117° |
| 2026-05-08 08:11 | -59.40045 | -164.23921 | 38356 ft | 575 kts | 117° |
| 2026-05-08 08:11 | -59.43184 | -164.09471 | 38346 ft | 575 kts | 117° |
| 2026-05-08 08:12 | -59.46280 | -163.95120 | 38347 ft | 575 kts | 116° |
| 2026-05-08 08:12 | -59.49387 | -163.80614 | 38348 ft | 575 kts | 116° |
| 2026-05-08 08:13 | -59.52471 | -163.66114 | 38338 ft | 574 kts | 116° |
| 2026-05-08 08:13 | -59.55541 | -163.51583 | 38342 ft | 574 kts | 116° |
| 2026-05-08 08:14 | -59.58574 | -163.37120 | 38332 ft | 574 kts | 116° |
| 2026-05-08 08:14 | -59.61611 | -163.22538 | 38338 ft | 574 kts | 116° |
| 2026-05-08 08:15 | -59.64631 | -163.07931 | 38333 ft | 574 kts | 116° |
| 2026-05-08 08:15 | -59.67633 | -162.93309 | 38324 ft | 574 kts | 116° |
| 2026-05-08 08:16 | -59.70619 | -162.78657 | 38321 ft | 574 kts | 115° |
| 2026-05-08 08:16 | -59.73568 | -162.64083 | 38320 ft | 573 kts | 115° |
| 2026-05-08 08:17 | -59.76518 | -162.49399 | 38318 ft | 573 kts | 115° |
| 2026-05-08 08:17 | -59.79453 | -162.34679 | 38309 ft | 573 kts | 115° |
| 2026-05-08 08:18 | -59.82370 | -162.19943 | 38308 ft | 573 kts | 115° |
| 2026-05-08 08:18 | -59.85270 | -162.05182 | 38300 ft | 573 kts | 115° |
| 2026-05-08 08:19 | -59.88132 | -161.90505 | 38300 ft | 573 kts | 115° |
| 2026-05-08 08:19 | -59.90994 | -161.75718 | 38294 ft | 572 kts | 115° |
| 2026-05-08 08:20 | -59.93841 | -161.60900 | 38292 ft | 572 kts | 114° |
| 2026-05-08 08:20 | -59.96654 | -161.46147 | 38289 ft | 572 kts | 114° |
| 2026-05-08 08:21 | -59.99466 | -161.31286 | 38290 ft | 572 kts | 114° |
| 2026-05-08 08:21 | -60.02262 | -161.16399 | 38279 ft | 572 kts | 114° |
| 2026-05-08 08:22 | -60.05042 | -161.01479 | 38276 ft | 572 kts | 114° |
| 2026-05-08 08:22 | -60.07804 | -160.86541 | 38273 ft | 572 kts | 114° |
| 2026-05-08 08:23 | -60.10530 | -160.71684 | 38270 ft | 572 kts | 114° |
| 2026-05-08 08:23 | -60.13260 | -160.56689 | 38267 ft | 572 kts | 113° |
| 2026-05-08 08:24 | -60.15971 | -160.41677 | 38264 ft | 572 kts | 113° |
| 2026-05-08 08:24 | -60.18645 | -160.26755 | 38255 ft | 572 kts | 113° |
| 2026-05-08 08:25 | -60.21320 | -160.11707 | 38249 ft | 572 kts | 113° |
| 2026-05-08 08:25 | -60.23978 | -159.96636 | 38245 ft | 571 kts | 113° |
| 2026-05-08 08:26 | -60.26618 | -159.81540 | 38237 ft | 571 kts | 112° |
| 2026-05-08 08:26 | -60.29222 | -159.66534 | 38235 ft | 571 kts | 112° |
| 2026-05-08 08:27 | -60.31825 | -159.51413 | 38227 ft | 571 kts | 112° |
| 2026-05-08 08:27 | -60.34409 | -159.36275 | 38223 ft | 570 kts | 112° |
| 2026-05-08 08:28 | -60.36973 | -159.21128 | 38214 ft | 570 kts | 112° |
| 2026-05-08 08:28 | -60.39522 | -159.05950 | 38207 ft | 570 kts | 112° |
| 2026-05-08 08:29 | -60.42032 | -158.90871 | 38202 ft | 569 kts | 112° |
| 2026-05-08 08:29 | -60.44543 | -158.75665 | 38194 ft | 569 kts | 111° |